sensor_id;sensor_type;location;lat;lon;timestamp;pressure;altitude;pressure_sealevel;temperature;humidity
13553;BME280;6847;48.830;9.116;2023-04-19T00:01:00;98442.13;;;13.32;55.55
13553;BME280;6847;48.830;9.116;2023-04-19T00:03:29;98467.13;;;13.39;55.64
13553;BME280;6847;48.830;9.116;2023-04-19T00:05:56;98474.16;;;13.45;55.95
13553;BME280;6847;48.830;9.116;2023-04-19T00:08:23;98470.06;;;13.43;55.40
13553;BME280;6847;48.830;9.116;2023-04-19T00:10:50;98474.16;;;13.45;56.01
13553;BME280;6847;48.830;9.116;2023-04-19T00:13:18;98476.34;;;13.43;55.93
13553;BME280;6847;48.830;9.116;2023-04-19T00:15:47;98476.59;;;13.42;55.40
13553;BME280;6847;48.830;9.116;2023-04-19T00:18:14;98474.72;;;13.42;55.61
13553;BME280;6847;48.830;9.116;2023-04-19T00:20:41;98480.16;;;13.42;56.18
13553;BME280;6847;48.830;9.116;2023-04-19T00:23:08;98430.81;;;13.20;55.65
13553;BME280;6847;48.830;9.116;2023-04-19T00:25:38;98463.81;;;13.42;56.05
13553;BME280;6847;48.830;9.116;2023-04-19T00:28:05;98469.56;;;13.41;56.18
13553;BME280;6847;48.830;9.116;2023-04-19T00:30:31;98457.34;;;13.38;55.48
13553;BME280;6847;48.830;9.116;2023-04-19T00:32:59;98460.06;;;13.38;55.62
13553;BME280;6847;48.830;9.116;2023-04-19T00:35:26;98468.78;;;13.35;56.14
13553;BME280;6847;48.830;9.116;2023-04-19T00:37:55;98447.63;;;13.27;55.85
13553;BME280;6847;48.830;9.116;2023-04-19T00:40:23;98374.19;;;12.83;55.42
13553;BME280;6847;48.830;9.116;2023-04-19T00:42:53;98451.91;;;13.33;55.84
13553;BME280;6847;48.830;9.116;2023-04-19T00:45:20;98462.28;;;13.31;55.98
13553;BME280;6847;48.830;9.116;2023-04-19T00:47:46;98453.06;;;13.27;56.10
13553;BME280;6847;48.830;9.116;2023-04-19T00:50:14;98454.13;;;13.26;56.17
13553;BME280;6847;48.830;9.116;2023-04-19T00:52:42;98450.34;;;13.27;56.33
13553;BME280;6847;48.830;9.116;2023-04-19T00:55:09;98411.03;;;12.99;55.80
13553;BME280;6847;48.830;9.116;2023-04-19T00:57:36;98453.66;;;13.19;56.02
13553;BME280;6847;48.830;9.116;2023-04-19T01:00:04;98435.69;;;13.13;55.81
13553;BME280;6847;48.830;9.116;2023-04-19T01:02:33;98456.31;;;13.24;56.69
13553;BME280;6847;48.830;9.116;2023-04-19T01:05:00;98449.25;;;13.23;56.40
13553;BME280;6847;48.830;9.116;2023-04-19T01:07:32;98444.94;;;13.22;56.50
13553;BME280;6847;48.830;9.116;2023-04-19T01:10:05;98444.41;;;13.20;56.13
13553;BME280;6847;48.830;9.116;2023-04-19T01:12:34;98374.47;;;12.76;56.61
13553;BME280;6847;48.830;9.116;2023-04-19T01:15:01;98443.59;;;13.19;56.50
13553;BME280;6847;48.830;9.116;2023-04-19T01:17:30;98439.50;;;13.17;56.20
13553;BME280;6847;48.830;9.116;2023-04-19T01:20:04;98436.25;;;13.15;56.42
13553;BME280;6847;48.830;9.116;2023-04-19T01:22:40;98343.59;;;12.57;56.08
13553;BME280;6847;48.830;9.116;2023-04-19T01:25:10;98433.78;;;13.13;56.75
13553;BME280;6847;48.830;9.116;2023-04-19T01:27:36;98434.38;;;13.10;56.62
13553;BME280;6847;48.830;9.116;2023-04-19T01:30:07;98421.84;;;13.09;56.43
13553;BME280;6847;48.830;9.116;2023-04-19T01:32:39;98407.50;;;12.98;56.05
13553;BME280;6847;48.830;9.116;2023-04-19T01:35:06;98424.31;;;13.11;56.53
13553;BME280;6847;48.830;9.116;2023-04-19T01:37:37;98422.69;;;13.10;56.25
13553;BME280;6847;48.830;9.116;2023-04-19T01:40:08;98387.47;;;12.84;56.18
13553;BME280;6847;48.830;9.116;2023-04-19T01:42:51;98419.97;;;13.05;56.60
13553;BME280;6847;48.830;9.116;2023-04-19T01:45:19;98403.72;;;12.94;56.66
13553;BME280;6847;48.830;9.116;2023-04-19T01:47:51;98417.25;;;13.05;56.71
13553;BME280;6847;48.830;9.116;2023-04-19T01:50:20;98410.19;;;13.04;56.97
13553;BME280;6847;48.830;9.116;2023-04-19T01:52:51;98416.16;;;13.06;56.93
13553;BME280;6847;48.830;9.116;2023-04-19T01:55:23;98410.72;;;13.06;56.61
13553;BME280;6847;48.830;9.116;2023-04-19T01:57:50;98407.44;;;13.09;56.79
13553;BME280;6847;48.830;9.116;2023-04-19T02:00:19;98407.44;;;13.09;56.25
13553;BME280;6847;48.830;9.116;2023-04-19T02:02:48;98412.06;;;13.08;57.03
13553;BME280;6847;48.830;9.116;2023-04-19T02:05:15;98405.28;;;13.06;57.09
13553;BME280;6847;48.830;9.116;2023-04-19T02:07:42;98257.69;;;12.17;56.57
13553;BME280;6847;48.830;9.116;2023-04-19T02:10:25;98394.41;;;13.06;57.01
13553;BME280;6847;48.830;9.116;2023-04-19T02:12:57;98383.03;;;12.98;57.09
13553;BME280;6847;48.830;9.116;2023-04-19T02:15:25;98391.16;;;13.04;56.70
13553;BME280;6847;48.830;9.116;2023-04-19T02:17:57;98362.44;;;12.87;57.02
13553;BME280;6847;48.830;9.116;2023-04-19T02:20:34;98387.34;;;13.05;56.69
13553;BME280;6847;48.830;9.116;2023-04-19T02:23:03;98388.97;;;13.06;56.37
13553;BME280;6847;48.830;9.116;2023-04-19T02:25:32;98384.09;;;13.03;57.28
13553;BME280;6847;48.830;9.116;2023-04-19T02:28:00;98385.22;;;13.02;57.16
13553;BME280;6847;48.830;9.116;2023-04-19T02:30:26;98374.34;;;12.96;57.40
13553;BME280;6847;48.830;9.116;2023-04-19T02:32:53;98378.66;;;13.03;57.08
13553;BME280;6847;48.830;9.116;2023-04-19T02:35:23;98375.94;;;13.03;56.71
13553;BME280;6847;48.830;9.116;2023-04-19T02:37:52;98363.22;;;12.93;56.90
13553;BME280;6847;48.830;9.116;2023-04-19T02:40:25;98382.97;;;13.09;56.64
13553;BME280;6847;48.830;9.116;2023-04-19T02:42:54;98370.50;;;13.03;57.17
13553;BME280;6847;48.830;9.116;2023-04-19T02:45:24;98378.91;;;13.11;56.90
13553;BME280;6847;48.830;9.116;2023-04-19T02:47:51;98375.38;;;13.11;56.77
13553;BME280;6847;48.830;9.116;2023-04-19T02:50:19;98373.47;;;13.11;57.13
13553;BME280;6847;48.830;9.116;2023-04-19T02:52:46;98374.28;;;13.12;57.29
13553;BME280;6847;48.830;9.116;2023-04-19T02:55:14;98371.00;;;13.15;57.05
13553;BME280;6847;48.830;9.116;2023-04-19T02:57:44;98319.03;;;12.82;56.62
13553;BME280;6847;48.830;9.116;2023-04-19T03:00:16;98377.53;;;13.14;56.54
13553;BME280;6847;48.830;9.116;2023-04-19T03:02:43;98361.25;;;13.09;56.62
13553;BME280;6847;48.830;9.116;2023-04-19T03:05:09;98368.53;;;13.13;57.17
13553;BME280;6847;48.830;9.116;2023-04-19T03:07:39;98375.06;;;13.12;56.58
13553;BME280;6847;48.830;9.116;2023-04-19T03:10:07;98375.63;;;13.14;57.25
13553;BME280;6847;48.830;9.116;2023-04-19T03:12:36;98365.81;;;13.13;57.17
13553;BME280;6847;48.830;9.116;2023-04-19T03:15:09;98366.91;;;13.12;56.90
13553;BME280;6847;48.830;9.116;2023-04-19T03:17:39;98348.25;;;13.01;57.03
13553;BME280;6847;48.830;9.116;2023-04-19T03:20:09;98347.44;;;13.00;57.38
13553;BME280;6847;48.830;9.116;2023-04-19T03:22:36;98367.22;;;13.06;57.18
13553;BME280;6847;48.830;9.116;2023-04-19T03:25:03;98337.19;;;12.87;57.03
13553;BME280;6847;48.830;9.116;2023-04-19T03:27:34;98356.16;;;12.97;57.28
13553;BME280;6847;48.830;9.116;2023-04-19T03:30:01;98331.81;;;12.77;56.81
13553;BME280;6847;48.830;9.116;2023-04-19T03:32:28;98358.59;;;12.93;57.42
13553;BME280;6847;48.830;9.116;2023-04-19T03:34:56;98355.38;;;12.91;56.88
13553;BME280;6847;48.830;9.116;2023-04-19T03:37:22;98365.16;;;12.87;57.74
13553;BME280;6847;48.830;9.116;2023-04-19T03:39:49;98327.25;;;12.67;57.21
13553;BME280;6847;48.830;9.116;2023-04-19T03:42:19;98348.59;;;12.84;57.08
13553;BME280;6847;48.830;9.116;2023-04-19T03:44:45;98351.09;;;12.80;57.85
13553;BME280;6847;48.830;9.116;2023-04-19T03:47:12;98350.53;;;12.78;57.68
13553;BME280;6847;48.830;9.116;2023-04-19T03:49:42;98232.53;;;12.01;57.70
13553;BME280;6847;48.830;9.116;2023-04-19T03:52:10;98306.16;;;12.44;57.01
13553;BME280;6847;48.830;9.116;2023-04-19T03:54:39;98347.84;;;12.73;57.30
13553;BME280;6847;48.830;9.116;2023-04-19T03:57:07;98344.88;;;12.70;57.38
13553;BME280;6847;48.830;9.116;2023-04-19T03:59:37;98341.91;;;12.71;57.28
13553;BME280;6847;48.830;9.116;2023-04-19T04:02:05;98345.44;;;12.72;57.21
13553;BME280;6847;48.830;9.116;2023-04-19T04:04:31;98345.72;;;12.70;57.33
13553;BME280;6847;48.830;9.116;2023-04-19T04:07:00;98348.97;;;12.67;57.67
13553;BME280;6847;48.830;9.116;2023-04-19T04:09:28;98344.66;;;12.61;57.90
13553;BME280;6847;48.830;9.116;2023-04-19T04:11:58;98347.38;;;12.56;58.06
13553;BME280;6847;48.830;9.116;2023-04-19T04:14:25;98347.97;;;12.53;57.29
13553;BME280;6847;48.830;9.116;2023-04-19T04:16:51;98323.06;;;12.31;58.23
13553;BME280;6847;48.830;9.116;2023-04-19T04:19:27;98350.19;;;12.41;57.40
13553;BME280;6847;48.830;9.116;2023-04-19T04:21:55;98340.97;;;12.37;58.08
13553;BME280;6847;48.830;9.116;2023-04-19T04:24:23;98342.03;;;12.36;58.42
13553;BME280;6847;48.830;9.116;2023-04-19T04:26:52;98313.09;;;12.11;57.54
13553;BME280;6847;48.830;9.116;2023-04-19T04:29:19;98356.16;;;12.38;58.40
13553;BME280;6847;48.830;9.116;2023-04-19T04:31:46;98354.00;;;12.40;58.13
13553;BME280;6847;48.830;9.116;2023-04-19T04:34:13;98352.09;;;12.40;58.40
13553;BME280;6847;48.830;9.116;2023-04-19T04:36:40;98345.00;;;12.44;57.75
13553;BME280;6847;48.830;9.116;2023-04-19T04:39:09;98347.97;;;12.48;57.63
13553;BME280;6847;48.830;9.116;2023-04-19T04:41:38;98353.41;;;12.53;58.18
13553;BME280;6847;48.830;9.116;2023-04-19T04:44:08;98351.19;;;12.55;57.32
13553;BME280;6847;48.830;9.116;2023-04-19T04:46:36;98348.50;;;12.50;57.33
13553;BME280;6847;48.830;9.116;2023-04-19T04:49:07;98357.44;;;12.55;58.09
13553;BME280;6847;48.830;9.116;2023-04-19T04:51:34;98354.44;;;12.57;58.08
13553;BME280;6847;48.830;9.116;2023-04-19T04:54:01;98351.47;;;12.58;57.55
13553;BME280;6847;48.830;9.116;2023-04-19T04:56:29;98358.78;;;12.63;57.41
13553;BME280;6847;48.830;9.116;2023-04-19T04:58:56;98282.97;;;12.12;58.03
13553;BME280;6847;48.830;9.116;2023-04-19T05:01:28;98360.38;;;12.64;57.84
13553;BME280;6847;48.830;9.116;2023-04-19T05:03:55;98357.16;;;12.62;57.64
13553;BME280;6847;48.830;9.116;2023-04-19T05:06:23;98362.88;;;12.60;57.97
13553;BME280;6847;48.830;9.116;2023-04-19T05:08:50;98361.78;;;12.62;57.48
13553;BME280;6847;48.830;9.116;2023-04-19T05:11:18;98367.72;;;12.64;58.06
13553;BME280;6847;48.830;9.116;2023-04-19T05:13:48;98367.44;;;12.65;57.50
13553;BME280;6847;48.830;9.116;2023-04-19T05:16:15;98069.69;;;10.83;57.90
13553;BME280;6847;48.830;9.116;2023-04-19T05:18:43;98103.19;;;11.07;57.66
13553;BME280;6847;48.830;9.116;2023-04-19T05:21:10;98264.78;;;12.08;57.69
13553;BME280;6847;48.830;9.116;2023-04-19T05:23:37;98361.41;;;12.78;57.89
13553;BME280;6847;48.830;9.116;2023-04-19T05:26:04;98361.94;;;12.80;57.94
13553;BME280;6847;48.830;9.116;2023-04-19T05:28:31;98366.25;;;12.91;57.91
13553;BME280;6847;48.830;9.116;2023-04-19T05:30:58;98373.22;;;13.03;57.49
13553;BME280;6847;48.830;9.116;2023-04-19T05:33:26;98373.16;;;13.13;57.87
13553;BME280;6847;48.830;9.116;2023-04-19T05:35:55;98376.16;;;13.21;57.30
13553;BME280;6847;48.830;9.116;2023-04-19T05:38:22;98374.75;;;13.24;57.93
13553;BME280;6847;48.830;9.116;2023-04-19T05:40:49;98346.03;;;13.08;57.02
13553;BME280;6847;48.830;9.116;2023-04-19T05:43:15;98369.03;;;13.25;57.55
13553;BME280;6847;48.830;9.116;2023-04-19T05:45:42;98374.69;;;13.34;57.61
13553;BME280;6847;48.830;9.116;2023-04-19T05:48:10;98373.56;;;13.40;57.34
13553;BME280;6847;48.830;9.116;2023-04-19T05:50:37;98381.66;;;13.45;57.44
13553;BME280;6847;48.830;9.116;2023-04-19T05:53:05;98379.50;;;13.47;57.45
13553;BME280;6847;48.830;9.116;2023-04-19T05:55:32;98356.44;;;13.34;57.29
13553;BME280;6847;48.830;9.116;2023-04-19T05:58:00;98381.94;;;13.49;57.77
13553;BME280;6847;48.830;9.116;2023-04-19T06:00:26;98366.72;;;13.43;57.57
13553;BME280;6847;48.830;9.116;2023-04-19T06:02:54;98378.94;;;13.50;57.72
13553;BME280;6847;48.830;9.116;2023-04-19T06:05:21;98374.00;;;13.52;57.80
13553;BME280;6847;48.830;9.116;2023-04-19T06:07:47;98379.69;;;13.56;57.05
13553;BME280;6847;48.830;9.116;2023-04-19T06:10:15;98377.22;;;13.59;57.26
13553;BME280;6847;48.830;9.116;2023-04-19T06:12:42;98376.63;;;13.62;57.16
13553;BME280;6847;48.830;9.116;2023-04-19T06:15:10;98379.31;;;13.67;57.13
13553;BME280;6847;48.830;9.116;2023-04-19T06:17:37;98380.34;;;13.71;57.51
13553;BME280;6847;48.830;9.116;2023-04-19T06:20:05;98375.97;;;13.76;57.36
13553;BME280;6847;48.830;9.116;2023-04-19T06:22:41;98380.28;;;13.82;57.41
13553;BME280;6847;48.830;9.116;2023-04-19T06:25:08;98376.63;;;13.91;57.03
13553;BME280;6847;48.830;9.116;2023-04-19T06:27:36;98378.44;;;14.01;56.89
13553;BME280;6847;48.830;9.116;2023-04-19T06:30:06;98378.34;;;14.11;56.88
13553;BME280;6847;48.830;9.116;2023-04-19T06:32:33;98375.59;;;14.16;56.90
13553;BME280;6847;48.830;9.116;2023-04-19T06:34:59;98377.16;;;14.22;56.58
13553;BME280;6847;48.830;9.116;2023-04-19T06:37:26;98384.19;;;14.28;56.67
13553;BME280;6847;48.830;9.116;2023-04-19T06:39:54;98383.00;;;14.34;56.80
13553;BME280;6847;48.830;9.116;2023-04-19T06:42:22;98384.91;;;14.39;56.81
13553;BME280;6847;48.830;9.116;2023-04-19T06:44:51;98387.56;;;14.44;56.69
13553;BME280;6847;48.830;9.116;2023-04-19T06:47:18;98385.00;;;14.53;56.65
13553;BME280;6847;48.830;9.116;2023-04-19T06:49:44;98358.94;;;14.47;56.57
13553;BME280;6847;48.830;9.116;2023-04-19T06:52:13;98387.44;;;14.78;56.59
13553;BME280;6847;48.830;9.116;2023-04-19T06:54:41;98383.44;;;14.89;56.53
13553;BME280;6847;48.830;9.116;2023-04-19T06:57:08;98273.63;;;14.27;56.26
13553;BME280;6847;48.830;9.116;2023-04-19T06:59:35;98385.84;;;15.14;56.27
13553;BME280;6847;48.830;9.116;2023-04-19T07:02:05;98388.34;;;15.30;56.18
13553;BME280;6847;48.830;9.116;2023-04-19T07:04:32;98372.19;;;15.33;55.95
13553;BME280;6847;48.830;9.116;2023-04-19T07:06:59;98377.09;;;15.50;56.18
13553;BME280;6847;48.830;9.116;2023-04-19T07:09:27;98384.44;;;15.54;56.12
13553;BME280;6847;48.830;9.116;2023-04-19T07:11:54;98346.66;;;15.43;56.01
13553;BME280;6847;48.830;9.116;2023-04-19T07:14:21;98375.13;;;15.74;56.05
13553;BME280;6847;48.830;9.116;2023-04-19T07:16:49;98378.25;;;15.81;55.72
13553;BME280;6847;48.830;9.116;2023-04-19T07:19:36;98376.88;;;15.98;55.78
13553;BME280;6847;48.830;9.116;2023-04-19T07:22:02;98374.88;;;16.17;55.52
13553;BME280;6847;48.830;9.116;2023-04-19T07:24:31;98338.69;;;16.25;55.32
13553;BME280;6847;48.830;9.116;2023-04-19T07:27:01;98227.59;;;15.79;55.20
13553;BME280;6847;48.830;9.116;2023-04-19T07:29:33;98338.69;;;16.80;54.77
13553;BME280;6847;48.830;9.116;2023-04-19T07:32:00;98362.38;;;17.20;54.75
13553;BME280;6847;48.830;9.116;2023-04-19T07:34:28;98322.41;;;17.11;54.55
13553;BME280;6847;48.830;9.116;2023-04-19T07:36:58;98365.16;;;17.43;54.55
13553;BME280;6847;48.830;9.116;2023-04-19T07:39:25;98350.72;;;17.51;54.37
13553;BME280;6847;48.830;9.116;2023-04-19T07:41:52;98365.44;;;17.77;53.98
13553;BME280;6847;48.830;9.116;2023-04-19T07:44:20;98358.22;;;17.81;54.00
13553;BME280;6847;48.830;9.116;2023-04-19T07:46:47;98343.91;;;17.93;53.88
13553;BME280;6847;48.830;9.116;2023-04-19T07:49:17;98356.84;;;18.32;53.04
13553;BME280;6847;48.830;9.116;2023-04-19T07:51:45;98350.16;;;18.55;52.85
13553;BME280;6847;48.830;9.116;2023-04-19T07:54:12;98349.63;;;18.93;52.50
13553;BME280;6847;48.830;9.116;2023-04-19T07:56:40;98352.13;;;20.18;50.44
13553;BME280;6847;48.830;9.116;2023-04-19T07:59:07;98346.53;;;20.82;49.85
13553;BME280;6847;48.830;9.116;2023-04-19T08:01:34;98336.88;;;20.97;49.63
13553;BME280;6847;48.830;9.116;2023-04-19T08:04:03;98355.25;;;22.21;48.19
13553;BME280;6847;48.830;9.116;2023-04-19T08:06:32;98357.13;;;22.66;47.63
13553;BME280;6847;48.830;9.116;2023-04-19T08:09:00;98344.72;;;22.84;47.95
13553;BME280;6847;48.830;9.116;2023-04-19T08:11:27;98352.22;;;23.76;47.07
13553;BME280;6847;48.830;9.116;2023-04-19T08:13:56;98349.06;;;24.33;46.42
13553;BME280;6847;48.830;9.116;2023-04-19T08:16:25;98238.13;;;23.07;47.58
13553;BME280;6847;48.830;9.116;2023-04-19T08:18:53;98319.41;;;22.82;49.06
13553;BME280;6847;48.830;9.116;2023-04-19T08:21:19;98328.91;;;21.99;50.56
13553;BME280;6847;48.830;9.116;2023-04-19T08:23:46;98328.94;;;21.25;51.58
13553;BME280;6847;48.830;9.116;2023-04-19T08:26:14;98343.09;;;20.64;52.25
13553;BME280;6847;48.830;9.116;2023-04-19T08:28:40;98346.50;;;20.15;52.78
13553;BME280;6847;48.830;9.116;2023-04-19T08:31:09;98342.56;;;19.78;52.88
13553;BME280;6847;48.830;9.116;2023-04-19T08:33:38;98339.66;;;19.66;53.04
13553;BME280;6847;48.830;9.116;2023-04-19T08:36:06;98343.41;;;19.52;52.55
13553;BME280;6847;48.830;9.116;2023-04-19T08:38:33;98297.53;;;19.18;52.42
13553;BME280;6847;48.830;9.116;2023-04-19T08:41:00;98345.50;;;19.55;52.37
13553;BME280;6847;48.830;9.116;2023-04-19T08:43:29;98336.09;;;19.39;51.90
13553;BME280;6847;48.830;9.116;2023-04-19T08:46:00;98328.03;;;19.34;51.95
13553;BME280;6847;48.830;9.116;2023-04-19T08:48:35;98256.66;;;18.74;51.83
13553;BME280;6847;48.830;9.116;2023-04-19T08:51:04;98332.22;;;19.06;52.12
13553;BME280;6847;48.830;9.116;2023-04-19T08:53:33;98329.94;;;18.91;52.45
13553;BME280;6847;48.830;9.116;2023-04-19T08:56:01;98328.97;;;18.78;52.10
13553;BME280;6847;48.830;9.116;2023-04-19T08:58:30;98333.13;;;18.58;52.30
13553;BME280;6847;48.830;9.116;2023-04-19T09:00:58;98325.94;;;18.40;52.39
13553;BME280;6847;48.830;9.116;2023-04-19T09:03:29;98327.63;;;18.19;52.71
13553;BME280;6847;48.830;9.116;2023-04-19T09:05:57;98318.34;;;17.97;52.66
13553;BME280;6847;48.830;9.116;2023-04-19T09:08:32;98322.91;;;17.80;52.70
13553;BME280;6847;48.830;9.116;2023-04-19T09:11:01;98295.47;;;17.49;52.53
13553;BME280;6847;48.830;9.116;2023-04-19T09:13:32;98267.22;;;17.17;53.10
13553;BME280;6847;48.830;9.116;2023-04-19T09:16:02;98320.72;;;17.46;52.86
13553;BME280;6847;48.830;9.116;2023-04-19T09:18:29;98313.50;;;17.50;52.39
13553;BME280;6847;48.830;9.116;2023-04-19T09:20:59;98285.28;;;17.41;52.42
13553;BME280;6847;48.830;9.116;2023-04-19T09:23:27;98312.66;;;17.63;52.08
13553;BME280;6847;48.830;9.116;2023-04-19T09:25:55;98300.75;;;17.67;51.86
13553;BME280;6847;48.830;9.116;2023-04-19T09:28:23;98312.13;;;17.83;51.65
13553;BME280;6847;48.830;9.116;2023-04-19T09:30:54;98307.19;;;17.94;51.90
13553;BME280;6847;48.830;9.116;2023-04-19T09:33:31;98294.16;;;17.99;51.70
13553;BME280;6847;48.830;9.116;2023-04-19T09:36:00;98294.88;;;18.13;51.68
13553;BME280;6847;48.830;9.116;2023-04-19T09:38:27;98243.25;;;17.98;51.36
13553;BME280;6847;48.830;9.116;2023-04-19T09:41:05;98288.50;;;18.44;51.33
13553;BME280;6847;48.830;9.116;2023-04-19T09:43:37;98285.38;;;18.76;51.13
13553;BME280;6847;48.830;9.116;2023-04-19T09:46:05;98294.78;;;19.18;50.20
13553;BME280;6847;48.830;9.116;2023-04-19T09:48:34;98256.03;;;19.03;50.33
13553;BME280;6847;48.830;9.116;2023-04-19T09:51:04;98286.84;;;19.43;50.13
13553;BME280;6847;48.830;9.116;2023-04-19T09:53:33;98282.16;;;19.52;50.16
13553;BME280;6847;48.830;9.116;2023-04-19T09:56:05;98267.16;;;19.58;50.21
13553;BME280;6847;48.830;9.116;2023-04-19T09:58:32;98280.50;;;19.77;50.08
13553;BME280;6847;48.830;9.116;2023-04-19T10:01:09;98283.72;;;19.79;50.07
13553;BME280;6847;48.830;9.116;2023-04-19T10:03:39;98270.44;;;19.81;49.95
13553;BME280;6847;48.830;9.116;2023-04-19T10:06:07;98269.16;;;19.78;50.02
13553;BME280;6847;48.830;9.116;2023-04-19T10:08:36;98272.63;;;19.67;49.95
13553;BME280;6847;48.830;9.116;2023-04-19T10:11:05;98267.75;;;19.64;50.31
13553;BME280;6847;48.830;9.116;2023-04-19T10:13:35;98264.09;;;19.98;49.49
13553;BME280;6847;48.830;9.116;2023-04-19T10:16:12;98268.28;;;20.42;48.76
13553;BME280;6847;48.830;9.116;2023-04-19T10:18:43;98264.34;;;20.51;48.82
13553;BME280;6847;48.830;9.116;2023-04-19T10:21:10;98266.28;;;20.51;48.79
13553;BME280;6847;48.830;9.116;2023-04-19T10:23:38;98257.94;;;20.39;49.01
13553;BME280;6847;48.830;9.116;2023-04-19T10:26:09;98249.53;;;20.06;49.26
13553;BME280;6847;48.830;9.116;2023-04-19T10:28:35;98260.44;;;19.85;49.69
13553;BME280;6847;48.830;9.116;2023-04-19T10:31:03;98262.88;;;19.69;49.68
13553;BME280;6847;48.830;9.116;2023-04-19T10:33:34;98259.22;;;19.56;49.74
13553;BME280;6847;48.830;9.116;2023-04-19T10:36:03;98232.59;;;19.22;49.59
13553;BME280;6847;48.830;9.116;2023-04-19T10:38:37;98257.31;;;19.14;50.20
13553;BME280;6847;48.830;9.116;2023-04-19T10:41:05;98224.06;;;18.72;50.27
13553;BME280;6847;48.830;9.116;2023-04-19T10:43:44;98210.78;;;18.40;50.30
13553;BME280;6847;48.830;9.116;2023-04-19T10:46:34;98222.38;;;18.37;50.33
13553;BME280;6847;48.830;9.116;2023-04-19T10:49:06;98248.88;;;18.50;49.93
13553;BME280;6847;48.830;9.116;2023-04-19T10:51:35;98248.03;;;18.41;50.32
13553;BME280;6847;48.830;9.116;2023-04-19T10:54:03;98233.84;;;18.30;50.05
13553;BME280;6847;48.830;9.116;2023-04-19T10:56:56;98235.28;;;18.28;50.23
13553;BME280;6847;48.830;9.116;2023-04-19T10:59:27;98234.66;;;18.31;50.05
13553;BME280;6847;48.830;9.116;2023-04-19T11:01:56;98179.59;;;18.01;49.83
13553;BME280;6847;48.830;9.116;2023-04-19T11:05:07;98227.56;;;18.47;49.54
13553;BME280;6847;48.830;9.116;2023-04-19T11:07:39;98223.53;;;18.53;49.60
13553;BME280;6847;48.830;9.116;2023-04-19T11:10:07;98209.50;;;18.46;49.74
13553;BME280;6847;48.830;9.116;2023-04-19T11:12:35;98211.91;;;18.30;49.55
13553;BME280;6847;48.830;9.116;2023-04-19T11:15:04;98213.59;;;18.00;50.23
13553;BME280;6847;48.830;9.116;2023-04-19T11:17:34;98199.25;;;17.64;50.35
13553;BME280;6847;48.830;9.116;2023-04-19T11:20:06;98204.00;;;17.50;50.20
13553;BME280;6847;48.830;9.116;2023-04-19T11:22:36;98209.41;;;17.32;50.85
13553;BME280;6847;48.830;9.116;2023-04-19T11:25:07;98206.72;;;17.19;50.65
13553;BME280;6847;48.830;9.116;2023-04-19T11:27:35;98202.13;;;17.06;50.39
13553;BME280;6847;48.830;9.116;2023-04-19T11:30:03;98200.09;;;16.89;50.80
13553;BME280;6847;48.830;9.116;2023-04-19T11:32:31;98199.31;;;16.75;50.67
13553;BME280;6847;48.830;9.116;2023-04-19T11:35:05;98208.47;;;16.56;51.16
13553;BME280;6847;48.830;9.116;2023-04-19T11:37:33;98208.69;;;16.46;51.08
13553;BME280;6847;48.830;9.116;2023-04-19T11:40:16;98191.53;;;16.32;51.00
13553;BME280;6847;48.830;9.116;2023-04-19T11:42:46;98182.03;;;16.16;50.78
13553;BME280;6847;48.830;9.116;2023-04-19T11:45:24;98201.06;;;16.21;50.98
13553;BME280;6847;48.830;9.116;2023-04-19T11:47:53;98180.25;;;15.98;51.08
13553;BME280;6847;48.830;9.116;2023-04-19T11:50:31;98185.91;;;15.87;51.56
13553;BME280;6847;48.830;9.116;2023-04-19T11:52:59;98192.31;;;15.69;51.79
13553;BME280;6847;48.830;9.116;2023-04-19T11:55:34;98195.34;;;15.54;51.84
13553;BME280;6847;48.830;9.116;2023-04-19T11:58:01;98185.09;;;15.46;51.80
13553;BME280;6847;48.830;9.116;2023-04-19T12:00:29;98151.69;;;15.22;51.98
13553;BME280;6847;48.830;9.116;2023-04-19T12:02:56;98181.44;;;15.37;52.03
13553;BME280;6847;48.830;9.116;2023-04-19T12:05:22;98182.84;;;15.34;52.07
13553;BME280;6847;48.830;9.116;2023-04-19T12:08:12;98173.22;;;15.23;52.26
13553;BME280;6847;48.830;9.116;2023-04-19T12:10:38;98181.69;;;15.22;52.11
13553;BME280;6847;48.830;9.116;2023-04-19T12:13:15;98172.09;;;15.10;52.12
13553;BME280;6847;48.830;9.116;2023-04-19T12:15:42;98182.78;;;15.07;52.27
13553;BME280;6847;48.830;9.116;2023-04-19T12:18:11;98178.41;;;14.92;52.64
13553;BME280;6847;48.830;9.116;2023-04-19T12:20:43;98189.47;;;14.82;52.83
13553;BME280;6847;48.830;9.116;2023-04-19T12:23:13;98174.47;;;14.66;52.88
13553;BME280;6847;48.830;9.116;2023-04-19T12:25:41;98169.69;;;14.58;53.12
13553;BME280;6847;48.830;9.116;2023-04-19T12:28:08;98186.25;;;14.61;52.95
13553;BME280;6847;48.830;9.116;2023-04-19T12:30:35;98160.69;;;14.38;53.26
13553;BME280;6847;48.830;9.116;2023-04-19T12:33:08;98182.44;;;14.43;53.25
13553;BME280;6847;48.830;9.116;2023-04-19T12:35:36;98183.34;;;14.39;53.45
13553;BME280;6847;48.830;9.116;2023-04-19T12:38:03;98183.59;;;14.37;53.15
13553;BME280;6847;48.830;9.116;2023-04-19T12:40:31;98178.44;;;14.36;53.33
13553;BME280;6847;48.830;9.116;2023-04-19T12:42:58;98177.03;;;14.38;53.42
13553;BME280;6847;48.830;9.116;2023-04-19T12:45:25;98157.03;;;14.29;53.36
13553;BME280;6847;48.830;9.116;2023-04-19T12:47:53;98165.56;;;14.41;53.11
13553;BME280;6847;48.830;9.116;2023-04-19T12:50:21;98171.47;;;14.49;52.99
13553;BME280;6847;48.830;9.116;2023-04-19T12:52:48;98164.31;;;14.53;53.24
13553;BME280;6847;48.830;9.116;2023-04-19T12:55:15;98167.47;;;14.60;53.08
13553;BME280;6847;48.830;9.116;2023-04-19T12:57:46;98161.44;;;14.63;52.90
13553;BME280;6847;48.830;9.116;2023-04-19T13:00:13;98166.72;;;14.73;52.91
13553;BME280;6847;48.830;9.116;2023-04-19T13:02:41;98168.88;;;14.76;53.07
13553;BME280;6847;48.830;9.116;2023-04-19T13:05:11;98167.31;;;14.70;53.16
13553;BME280;6847;48.830;9.116;2023-04-19T13:07:38;98165.50;;;14.65;53.33
13553;BME280;6847;48.830;9.116;2023-04-19T13:10:06;98160.44;;;14.59;53.71
13553;BME280;6847;48.830;9.116;2023-04-19T13:12:33;98164.03;;;14.54;53.64
13553;BME280;6847;48.830;9.116;2023-04-19T13:15:01;98135.13;;;14.39;53.71
13553;BME280;6847;48.830;9.116;2023-04-19T13:17:28;98147.44;;;14.51;53.63
13553;BME280;6847;48.830;9.116;2023-04-19T13:19:56;98145.09;;;14.63;53.74